Time;durP1;ratioP1;P1;durP2;ratioP2;P2;SDS_P1;SDS_P2;PMS_P1;PMS_P2;Temp;Humidity;BMP_temperature;BMP_pressure;BME280_temperature;BME280_humidity;BME280_pressure;Samples;Min_cycle;Max_cycle;Signal;HPM_P1;HPM_P2
2023/07/30 00:00:18;;;;;;;3.70;2.33;;;19.20;99.90;;;;;;2090665;28;20033;-71
2023/07/30 00:01:18;;;;;;;7.03;2.47;;;19.20;99.90;;;;;;2089005;28;20029;-71
2023/07/30 00:02:19;;;;;;;8.18;2.53;;;19.20;99.90;;;;;;2091484;28;20115;-71
2023/07/30 00:03:19;;;;;;;3.17;2.50;;;19.20;99.90;;;;;;2092070;28;20431;-71
2023/07/30 00:04:20;;;;;;;4.70;2.03;;;19.10;99.90;;;;;;2091466;28;20048;-71
2023/07/30 00:05:21;;;;;;;3.20;2.60;;;19.20;99.90;;;;;;2092105;28;20060;-71
2023/07/30 00:06:22;;;;;;;5.70;2.75;;;19.20;99.90;;;;;;2090613;28;20025;-71
2023/07/30 00:07:22;;;;;;;4.15;2.55;;;19.20;99.90;;;;;;2091078;28;20036;-71
2023/07/30 00:08:23;;;;;;;2.47;2.28;;;19.10;99.90;;;;;;2091682;28;20029;-71
2023/07/30 00:09:23;;;;;;;3.40;2.40;;;19.10;99.90;;;;;;2091535;28;20031;-71
2023/07/30 00:10:24;;;;;;;4.32;2.35;;;19.10;99.90;;;;;;2089909;28;20125;-71
2023/07/30 00:11:24;;;;;;;2.92;2.20;;;19.10;99.90;;;;;;2094605;28;20031;-71
2023/07/30 00:12:25;;;;;;;4.60;2.28;;;19.10;99.90;;;;;;2092115;28;20020;-71
2023/07/30 00:13:25;;;;;;;6.68;3.03;;;19.00;99.90;;;;;;2090876;28;20472;-71
2023/07/30 00:14:26;;;;;;;4.20;2.70;;;19.00;99.90;;;;;;2091788;28;20021;-71
2023/07/30 00:15:27;;;;;;;8.23;3.08;;;19.00;99.90;;;;;;2092534;28;20095;-71
2023/07/30 00:16:27;;;;;;;5.28;3.00;;;19.00;99.90;;;;;;2092546;28;20017;-71
2023/07/30 00:17:28;;;;;;;4.88;2.97;;;19.00;99.90;;;;;;2091831;28;20063;-71
2023/07/30 00:18:28;;;;;;;11.15;3.30;;;19.00;99.90;;;;;;2092582;28;20056;-71
2023/07/30 00:19:29;;;;;;;4.10;2.40;;;19.00;99.90;;;;;;2090720;28;20025;-71
2023/07/30 00:20:29;;;;;;;3.10;2.15;;;19.00;99.90;;;;;;2090782;28;20016;-71
2023/07/30 00:21:30;;;;;;;4.18;2.15;;;19.00;99.90;;;;;;2092230;28;20024;-71
2023/07/30 00:22:31;;;;;;;2.85;2.20;;;18.90;99.90;;;;;;2091219;28;20143;-71
2023/07/30 00:23:31;;;;;;;7.20;2.40;;;19.00;99.90;;;;;;2090216;28;20021;-71
2023/07/30 00:24:32;;;;;;;4.97;2.70;;;18.90;99.90;;;;;;2090860;28;20059;-71
2023/07/30 00:25:32;;;;;;;5.10;2.85;;;18.90;99.90;;;;;;2092675;28;20017;-71
2023/07/30 00:26:34;;;;;;;5.38;2.67;;;18.90;99.90;;;;;;2091315;28;20023;-71
2023/07/30 00:27:35;;;;;;;3.90;2.53;;;18.90;99.90;;;;;;2091948;28;20066;-71
2023/07/30 00:28:35;;;;;;;4.70;2.70;;;18.90;99.90;;;;;;2091638;28;20028;-71
2023/07/30 00:29:36;;;;;;;7.55;3.00;;;18.90;99.90;;;;;;2092163;28;20029;-71
2023/07/30 00:30:36;;;;;;;5.45;2.17;;;18.90;99.90;;;;;;2091634;28;20437;-71
2023/07/30 00:31:37;;;;;;;4.97;2.58;;;18.80;99.90;;;;;;2093716;28;20045;-71
2023/07/30 00:32:43;;;;;;;8.07;3.05;;;18.80;99.90;;;;;;2091962;28;20048;-71
2023/07/30 00:33:43;;;;;;;5.07;2.60;;;18.80;99.90;;;;;;2092903;28;20631;-71
2023/07/30 00:34:44;;;;;;;6.57;2.65;;;18.80;99.90;;;;;;2092165;28;20385;-71
2023/07/30 00:35:44;;;;;;;3.55;2.35;;;18.80;99.90;;;;;;2093220;28;20016;-71
2023/07/30 00:36:45;;;;;;;2.40;2.00;;;18.80;99.90;;;;;;2092466;28;20046;-71
2023/07/30 00:37:45;;;;;;;2.33;2.13;;;18.80;99.90;;;;;;2089510;28;20031;-71
2023/07/30 00:38:46;;;;;;;7.72;3.25;;;18.80;99.90;;;;;;2091403;28;20085;-71
2023/07/30 00:39:46;;;;;;;3.92;2.50;;;18.80;99.90;;;;;;2090716;28;20052;-71
2023/07/30 00:40:47;;;;;;;5.55;2.05;;;18.80;99.90;;;;;;2090716;28;20112;-71
2023/07/30 00:41:48;;;;;;;3.55;2.33;;;18.80;99.90;;;;;;2092484;28;20040;-71
2023/07/30 00:42:48;;;;;;;3.88;2.58;;;18.70;99.90;;;;;;2090610;28;20071;-71
2023/07/30 00:43:49;;;;;;;9.20;2.97;;;18.70;99.90;;;;;;2090772;28;20025;-71
2023/07/30 00:44:49;;;;;;;4.35;2.45;;;18.70;99.90;;;;;;2093435;28;20032;-71
2023/07/30 00:45:50;;;;;;;3.70;2.47;;;18.70;99.90;;;;;;2092025;28;20492;-71
2023/07/30 00:46:51;;;;;;;7.45;2.80;;;18.70;99.90;;;;;;2091492;28;20433;-71
2023/07/30 00:47:51;;;;;;;3.22;2.40;;;18.70;99.90;;;;;;2092140;28;20066;-71
2023/07/30 00:48:52;;;;;;;4.15;2.15;;;18.70;99.90;;;;;;2091661;28;20036;-71
2023/07/30 00:49:53;;;;;;;4.22;2.45;;;18.60;99.90;;;;;;2091982;28;20021;-71
2023/07/30 00:50:54;;;;;;;4.35;2.47;;;18.60;99.90;;;;;;2090730;28;20500;-71
2023/07/30 00:51:56;;;;;;;3.83;2.17;;;18.60;99.90;;;;;;2091480;28;20056;-71
2023/07/30 00:52:57;;;;;;;4.22;2.50;;;18.60;99.90;;;;;;2092438;28;20531;-71
2023/07/30 00:53:57;;;;;;;5.22;2.70;;;18.60;99.90;;;;;;2091643;28;20020;-71
2023/07/30 00:55:01;;;;;;;4.82;2.50;;;18.60;99.90;;;;;;2093581;28;20029;-71
2023/07/30 00:56:01;;;;;;;5.43;2.85;;;18.60;99.90;;;;;;2091333;28;20100;-71
2023/07/30 00:57:02;;;;;;;3.95;2.70;;;18.60;99.90;;;;;;2091408;28;20033;-71
2023/07/30 00:58:04;;;;;;;2.03;1.77;;;18.50;99.90;;;;;;2094554;28;20039;-71
2023/07/30 00:59:04;;;;;;;7.10;2.50;;;18.50;99.90;;;;;;2091662;28;20032;-71
2023/07/30 01:00:08;;;;;;;7.88;2.85;;;18.50;99.90;;;;;;2091808;28;20662;-71
2023/07/30 01:01:10;;;;;;;12.57;2.75;;;18.50;99.90;;;;;;2092815;28;20028;-71
2023/07/30 01:02:11;;;;;;;7.57;3.13;;;18.50;99.90;;;;;;2092723;28;20033;-71
2023/07/30 01:03:12;;;;;;;4.72;2.83;;;18.50;99.90;;;;;;2090576;28;20384;-71
2023/07/30 01:04:15;;;;;;;5.13;2.90;;;18.50;99.90;;;;;;2090655;28;20021;-71
2023/07/30 01:05:15;;;;;;;4.75;2.75;;;18.50;99.90;;;;;;2091051;28;20040;-71
2023/07/30 01:06:16;;;;;;;3.38;2.22;;;18.50;99.90;;;;;;2090994;28;20061;-71
2023/07/30 01:07:16;;;;;;;6.70;2.72;;;18.50;99.90;;;;;;2091559;28;20036;-71
2023/07/30 01:08:17;;;;;;;5.35;2.55;;;18.40;99.90;;;;;;2090379;28;20026;-71
2023/07/30 01:09:18;;;;;;;6.30;2.63;;;18.40;99.90;;;;;;2091902;28;20117;-71
2023/07/30 01:10:20;;;;;;;12.43;2.50;;;18.40;99.90;;;;;;2090499;28;20070;-71
2023/07/30 01:11:21;;;;;;;7.18;2.30;;;18.40;99.90;;;;;;2090571;28;20028;-71
2023/07/30 01:12:22;;;;;;;4.35;2.40;;;18.40;99.90;;;;;;2090444;28;20096;-71
2023/07/30 01:13:23;;;;;;;4.55;2.58;;;18.40;99.90;;;;;;2090566;28;20060;-71
2023/07/30 01:14:26;;;;;;;5.15;2.25;;;18.40;99.90;;;;;;2091346;28;20021;-71
2023/07/30 01:15:27;;;;;;;4.22;2.00;;;18.40;99.90;;;;;;2091707;28;20025;-71
2023/07/30 01:16:28;;;;;;;11.30;2.38;;;18.30;99.90;;;;;;2092969;28;20024;-71
2023/07/30 01:17:28;;;;;;;5.70;2.67;;;18.30;99.90;;;;;;2091867;28;20024;-71
2023/07/30 01:18:29;;;;;;;6.07;2.22;;;18.30;99.90;;;;;;2091559;28;20060;-71
2023/07/30 01:19:30;;;;;;;6.38;2.78;;;18.30;99.90;;;;;;2090179;28;20024;-71
2023/07/30 01:20:31;;;;;;;4.32;2.35;;;18.30;99.90;;;;;;2092582;28;20025;-71
2023/07/30 01:21:36;;;;;;;6.57;3.03;;;18.20;99.90;;;;;;2091117;28;20427;-71
2023/07/30 01:22:36;;;;;;;4.82;2.72;;;18.20;99.90;;;;;;2092182;28;20484;-71
2023/07/30 01:23:37;;;;;;;4.45;2.92;;;18.20;99.90;;;;;;2091774;28;20395;-71
2023/07/30 01:24:38;;;;;;;5.95;3.10;;;18.20;99.90;;;;;;2091963;28;20024;-71
2023/07/30 01:25:40;;;;;;;5.15;2.50;;;18.20;99.90;;;;;;2089779;28;20106;-71
2023/07/30 01:26:47;;;;;;;5.18;2.50;;;18.20;99.90;;;;;;2092168;28;20584;-71
2023/07/30 01:27:53;;;;;;;5.55;2.60;;;18.20;99.90;;;;;;2090593;28;20021;-71
2023/07/30 01:28:58;;;;;;;6.32;2.22;;;18.10;99.90;;;;;;2091199;28;20033;-71
2023/07/30 01:30:10;;;;;;;3.95;2.70;;;18.10;99.90;;;;;;2091123;28;20096;-71
2023/07/30 01:31:15;;;;;;;3.47;2.25;;;18.10;99.90;;;;;;2091514;28;20021;-71
2023/07/30 01:32:18;;;;;;;5.93;2.60;;;18.10;99.90;;;;;;2091249;28;20536;-71
2023/07/30 01:33:19;;;;;;;4.68;2.35;;;18.00;99.90;;;;;;2091850;28;20033;-71
2023/07/30 01:34:20;;;;;;;9.32;3.38;;;18.00;99.90;;;;;;2091525;28;20027;-71
2023/07/30 01:35:25;;;;;;;4.13;2.40;;;18.00;99.90;;;;;;2091389;28;20023;-71
2023/07/30 01:36:27;;;;;;;3.25;2.40;;;18.00;99.90;;;;;;2092241;28;20017;-71
2023/07/30 01:37:29;;;;;;;5.10;2.97;;;18.00;99.90;;;;;;2091457;28;20023;-71
2023/07/30 01:38:30;;;;;;;5.65;2.70;;;18.00;99.90;;;;;;2091652;28;20025;-71
2023/07/30 01:39:33;;;;;;;6.10;2.88;;;18.00;99.90;;;;;;2092287;28;20023;-71
2023/07/30 01:40:33;;;;;;;3.70;2.53;;;17.90;99.90;;;;;;2091764;28;20461;-71
2023/07/30 01:41:34;;;;;;;3.63;2.63;;;17.90;99.90;;;;;;2092140;28;20048;-71
2023/07/30 01:42:35;;;;;;;3.40;2.65;;;17.90;99.90;;;;;;2090542;28;20610;-71
2023/07/30 01:43:35;;;;;;;4.72;2.92;;;17.90;99.90;;;;;;2092244;28;20021;-71
2023/07/30 01:44:36;;;;;;;4.80;2.65;;;17.90;99.90;;;;;;2091118;28;20033;-71
2023/07/30 01:45:36;;;;;;;3.67;2.22;;;17.90;99.90;;;;;;2091280;28;20029;-71
2023/07/30 01:46:37;;;;;;;3.50;2.55;;;17.90;99.90;;;;;;2091050;28;20021;-71
2023/07/30 01:47:37;;;;;;;4.88;2.38;;;17.80;99.90;;;;;;2091580;28;20581;-71
2023/07/30 01:48:38;;;;;;;8.25;2.90;;;17.80;99.90;;;;;;2092198;28;20017;-71
2023/07/30 01:49:38;;;;;;;6.03;3.10;;;17.80;99.90;;;;;;2090877;28;20082;-71
2023/07/30 01:50:39;;;;;;;7.53;2.78;;;17.80;99.90;;;;;;2090140;28;20051;-71
2023/07/30 01:51:39;;;;;;;6.32;3.17;;;17.80;99.90;;;;;;2090378;28;20567;-71
2023/07/30 01:52:40;;;;;;;9.18;3.08;;;17.70;99.90;;;;;;2091568;28;20116;-71
2023/07/30 01:53:40;;;;;;;7.80;2.78;;;17.70;99.90;;;;;;2093735;28;20544;-71
2023/07/30 01:54:42;;;;;;;5.63;2.58;;;17.70;99.90;;;;;;2093270;28;20404;-71
2023/07/30 01:55:43;;;;;;;3.95;2.97;;;17.70;99.90;;;;;;2091387;28;20021;-71
2023/07/30 01:56:44;;;;;;;4.35;2.25;;;17.70;99.90;;;;;;2090161;28;20017;-71
2023/07/30 01:57:44;;;;;;;5.53;2.63;;;17.70;99.90;;;;;;2091597;28;20013;-70
2023/07/30 01:58:45;;;;;;;7.40;3.13;;;17.70;99.90;;;;;;2091125;28;20087;-70
2023/07/30 01:59:45;;;;;;;6.00;3.00;;;17.70;99.90;;;;;;2090056;28;20055;-70
2023/07/30 02:00:46;;;;;;;3.95;2.55;;;17.70;99.90;;;;;;2090871;28;20474;-70
2023/07/30 02:01:47;;;;;;;8.00;2.65;;;17.70;99.90;;;;;;2089875;28;20132;-70
2023/07/30 02:02:47;;;;;;;8.43;3.03;;;17.70;99.90;;;;;;2089233;28;20074;-70
2023/07/30 02:03:48;;;;;;;4.70;2.38;;;17.70;99.90;;;;;;2091523;28;20102;-70
2023/07/30 02:04:48;;;;;;;8.60;2.70;;;17.60;99.90;;;;;;2091526;28;20021;-70
2023/07/30 02:05:49;;;;;;;4.82;2.83;;;17.60;99.90;;;;;;2089533;28;20532;-70
2023/07/30 02:06:50;;;;;;;5.72;2.70;;;17.60;99.90;;;;;;2090126;28;20027;-70
2023/07/30 02:07:50;;;;;;;4.70;2.60;;;17.60;99.90;;;;;;2093633;28;20032;-70
2023/07/30 02:08:51;;;;;;;4.38;2.60;;;17.60;99.90;;;;;;2091738;28;20151;-70
2023/07/30 02:09:51;;;;;;;4.05;2.17;;;17.60;99.90;;;;;;2091263;28;20108;-70
2023/07/30 02:10:59;;;;;;;2.95;2.22;;;17.60;99.90;;;;;;2092583;28;20071;-70
2023/07/30 02:11:59;;;;;;;3.53;2.40;;;17.60;99.90;;;;;;2092110;28;20113;-70
2023/07/30 02:13:00;;;;;;;4.00;2.03;;;17.50;99.90;;;;;;2091119;28;20028;-70
2023/07/30 02:14:00;;;;;;;4.68;2.65;;;17.50;99.90;;;;;;2092199;28;20029;-70
2023/07/30 02:15:01;;;;;;;3.50;2.40;;;17.50;99.90;;;;;;2093248;28;20028;-70
2023/07/30 02:16:02;;;;;;;5.13;2.78;;;17.50;99.90;;;;;;2091660;28;20025;-70
2023/07/30 02:17:02;;;;;;;2.65;2.45;;;17.50;99.90;;;;;;2091849;28;20020;-70
2023/07/30 02:18:03;;;;;;;6.55;2.83;;;17.50;99.90;;;;;;2092511;28;20029;-70
2023/07/30 02:19:03;;;;;;;7.20;3.00;;;17.50;99.90;;;;;;2093499;28;20096;-70
2023/07/30 02:20:05;;;;;;;4.28;2.97;;;17.50;99.90;;;;;;2091088;28;20035;-70
2023/07/30 02:21:05;;;;;;;6.85;2.97;;;17.50;99.90;;;;;;2094219;28;20116;-70
2023/07/30 02:22:06;;;;;;;8.25;3.30;;;17.50;99.90;;;;;;2092661;28;20025;-70
2023/07/30 02:23:07;;;;;;;4.05;2.90;;;17.50;99.90;;;;;;2093762;28;20032;-70
2023/07/30 02:24:09;;;;;;;6.40;2.80;;;17.40;99.90;;;;;;2092761;28;20488;-70
2023/07/30 02:25:10;;;;;;;7.03;3.22;;;17.40;99.90;;;;;;2091636;28;20021;-70
2023/07/30 02:26:10;;;;;;;8.18;3.08;;;17.40;99.90;;;;;;2092033;28;20025;-70
2023/07/30 02:27:11;;;;;;;6.13;2.97;;;17.40;99.90;;;;;;2091771;28;20029;-70
2023/07/30 02:28:12;;;;;;;6.28;3.47;;;17.40;99.90;;;;;;2091715;28;20952;-70
2023/07/30 02:29:12;;;;;;;5.80;3.30;;;17.40;99.90;;;;;;2092724;28;20082;-70
2023/07/30 02:30:13;;;;;;;6.60;3.25;;;17.40;99.90;;;;;;2092711;28;20017;-70
2023/07/30 02:31:13;;;;;;;6.85;3.40;;;17.40;99.90;;;;;;2092890;28;20048;-70
2023/07/30 02:32:14;;;;;;;4.78;2.85;;;17.40;99.90;;;;;;2092291;28;20445;-70
2023/07/30 02:33:14;;;;;;;5.60;3.45;;;17.40;99.90;;;;;;2094125;28;20023;-70
2023/07/30 02:34:15;;;;;;;4.68;3.03;;;17.40;99.90;;;;;;2094257;28;20027;-70
2023/07/30 02:35:15;;;;;;;4.30;2.83;;;17.30;99.90;;;;;;2092531;28;20033;-70
2023/07/30 02:36:16;;;;;;;5.13;3.10;;;17.30;99.90;;;;;;2092240;28;20072;-70
2023/07/30 02:37:16;;;;;;;5.25;3.53;;;17.30;99.90;;;;;;2091319;28;20028;-70
2023/07/30 02:38:17;;;;;;;6.15;2.92;;;17.30;99.90;;;;;;2092443;28;20028;-70
2023/07/30 02:39:18;;;;;;;9.38;3.38;;;17.30;99.90;;;;;;2092657;28;20028;-70
2023/07/30 02:40:18;;;;;;;4.00;3.30;;;17.30;99.90;;;;;;2092380;28;20545;-70
2023/07/30 02:41:19;;;;;;;3.75;3.05;;;17.30;99.90;;;;;;2091606;28;20028;-70
2023/07/30 02:42:19;;;;;;;3.28;2.65;;;17.20;99.90;;;;;;2089772;28;20021;-70
2023/07/30 02:43:20;;;;;;;8.05;3.13;;;17.30;99.90;;;;;;2094525;28;20419;-70
2023/07/30 02:44:20;;;;;;;4.82;3.38;;;17.30;99.90;;;;;;2090748;28;20060;-70
2023/07/30 02:45:21;;;;;;;4.93;3.40;;;17.20;99.90;;;;;;2089648;28;20025;-70
2023/07/30 02:46:22;;;;;;;6.47;2.90;;;17.20;99.90;;;;;;2091564;28;20071;-70
2023/07/30 02:47:22;;;;;;;5.97;3.00;;;17.20;99.90;;;;;;2093317;28;20051;-70
2023/07/30 02:48:23;;;;;;;4.25;2.95;;;17.20;99.90;;;;;;2092706;28;20028;-70
2023/07/30 02:49:23;;;;;;;7.50;3.15;;;17.20;99.90;;;;;;2093791;28;20040;-70
2023/07/30 02:50:24;;;;;;;9.68;2.90;;;17.10;99.90;;;;;;2094926;28;20031;-70
2023/07/30 02:51:24;;;;;;;4.18;3.10;;;17.10;99.90;;;;;;2095987;28;20471;-70
2023/07/30 02:52:25;;;;;;;5.55;3.05;;;17.10;99.90;;;;;;2092885;28;20021;-70
2023/07/30 02:53:25;;;;;;;5.53;2.95;;;17.10;99.90;;;;;;2091675;28;20047;-70
2023/07/30 02:54:26;;;;;;;3.88;3.00;;;17.10;99.90;;;;;;2094380;28;20083;-70
2023/07/30 02:55:26;;;;;;;4.47;3.03;;;17.10;99.90;;;;;;2091784;28;20021;-70
2023/07/30 02:56:27;;;;;;;5.80;2.92;;;17.10;99.90;;;;;;2093310;28;20075;-70
2023/07/30 02:57:27;;;;;;;5.20;3.35;;;17.10;99.90;;;;;;2093167;28;20055;-70
2023/07/30 02:58:28;;;;;;;6.45;3.30;;;17.10;99.90;;;;;;2092286;28;20012;-70
2023/07/30 02:59:28;;;;;;;5.82;3.00;;;17.10;99.90;;;;;;2094036;28;20033;-70
2023/07/30 03:00:29;;;;;;;6.47;3.35;;;17.10;99.90;;;;;;2091583;28;20032;-70
2023/07/30 03:01:30;;;;;;;8.80;2.80;;;17.10;99.90;;;;;;2090633;28;20127;-70
2023/07/30 03:02:30;;;;;;;8.18;2.75;;;17.10;99.90;;;;;;2092013;28;20031;-70
2023/07/30 03:03:31;;;;;;;8.57;2.95;;;17.10;99.90;;;;;;2091694;28;20060;-70
2023/07/30 03:04:32;;;;;;;6.47;3.15;;;17.00;99.90;;;;;;2092599;28;20033;-70
2023/07/30 03:05:32;;;;;;;6.55;3.03;;;17.10;99.90;;;;;;2092258;28;20411;-70
2023/07/30 03:06:33;;;;;;;8.48;3.17;;;17.00;99.90;;;;;;2093517;28;20020;-70
2023/07/30 03:07:35;;;;;;;5.13;3.00;;;17.10;99.90;;;;;;2093080;28;20069;-70
2023/07/30 03:08:36;;;;;;;9.00;3.10;;;17.00;99.90;;;;;;2090246;28;20043;-70
2023/07/30 03:09:36;;;;;;;5.90;3.05;;;17.00;99.90;;;;;;2091727;28;20032;-70
2023/07/30 03:10:37;;;;;;;3.95;3.08;;;17.00;99.90;;;;;;2091153;28;20108;-70
2023/07/30 03:11:37;;;;;;;6.53;3.03;;;17.00;99.90;;;;;;2091563;28;20013;-70
2023/07/30 03:12:38;;;;;;;5.93;2.88;;;17.00;99.90;;;;;;2091766;28;20032;-70
2023/07/30 03:13:39;;;;;;;6.22;3.35;;;17.00;99.90;;;;;;2092797;28;20025;-70
2023/07/30 03:14:39;;;;;;;9.20;3.25;;;17.00;99.90;;;;;;2092985;28;20440;-70
2023/07/30 03:15:40;;;;;;;8.40;2.80;;;17.00;99.90;;;;;;2092576;28;20163;-70
2023/07/30 03:16:40;;;;;;;5.25;2.90;;;17.00;99.90;;;;;;2091636;28;20025;-70
2023/07/30 03:17:41;;;;;;;4.00;2.53;;;17.00;99.90;;;;;;2093178;28;20028;-70
2023/07/30 03:18:41;;;;;;;9.00;3.08;;;17.00;99.90;;;;;;2093497;28;20028;-70
2023/07/30 03:19:42;;;;;;;4.90;3.03;;;16.90;99.90;;;;;;2092636;28;20028;-70
2023/07/30 03:20:42;;;;;;;8.52;3.13;;;17.00;99.90;;;;;;2092289;28;20095;-70
2023/07/30 03:21:43;;;;;;;4.50;2.42;;;16.90;99.90;;;;;;2090944;28;20059;-70
2023/07/30 03:22:43;;;;;;;5.13;2.97;;;16.90;99.90;;;;;;2091374;28;20032;-70
2023/07/30 03:23:44;;;;;;;6.75;2.92;;;16.90;99.90;;;;;;2090778;28;20024;-70
2023/07/30 03:24:47;;;;;;;5.57;3.10;;;16.90;99.90;;;;;;2090290;28;20032;-70
2023/07/30 03:25:47;;;;;;;7.10;2.97;;;16.90;99.90;;;;;;2089943;28;20015;-70
2023/07/30 03:26:48;;;;;;;5.68;2.88;;;16.90;99.90;;;;;;2092361;28;20020;-70
2023/07/30 03:27:48;;;;;;;5.10;2.70;;;16.90;99.90;;;;;;2092084;28;20139;-70
2023/07/30 03:28:49;;;;;;;6.68;3.30;;;16.90;99.90;;;;;;2091875;28;20071;-70
2023/07/30 03:29:50;;;;;;;5.10;2.65;;;16.90;99.90;;;;;;2090368;28;20665;-70
2023/07/30 03:30:50;;;;;;;3.83;2.70;;;16.90;99.90;;;;;;2091462;28;20091;-70
2023/07/30 03:31:51;;;;;;;7.90;3.10;;;16.90;99.90;;;;;;2092932;28;20102;-70
2023/07/30 03:32:51;;;;;;;5.30;2.95;;;16.90;99.90;;;;;;2092971;28;20086;-70
2023/07/30 03:33:52;;;;;;;5.97;2.95;;;16.80;99.90;;;;;;2091233;28;20025;-70
2023/07/30 03:34:52;;;;;;;5.78;3.05;;;16.90;99.90;;;;;;2091209;28;20504;-70
2023/07/30 03:35:53;;;;;;;5.53;3.10;;;16.80;99.90;;;;;;2093330;28;20017;-70
2023/07/30 03:36:53;;;;;;;5.82;3.20;;;16.80;99.90;;;;;;2094651;28;20033;-70
2023/07/30 03:37:54;;;;;;;5.55;2.97;;;16.80;99.90;;;;;;2092318;28;20025;-70
2023/07/30 03:38:54;;;;;;;7.38;3.05;;;16.80;99.90;;;;;;2093171;28;20029;-70
2023/07/30 03:39:55;;;;;;;5.13;3.03;;;16.80;99.90;;;;;;2093171;28;20020;-70
2023/07/30 03:40:55;;;;;;;7.90;3.33;;;16.80;99.90;;;;;;2091215;28;20028;-70
2023/07/30 03:41:56;;;;;;;4.75;3.00;;;16.80;99.90;;;;;;2092646;28;20037;-70
2023/07/30 03:42:57;;;;;;;5.63;3.10;;;16.80;99.90;;;;;;2096031;28;20463;-70
2023/07/30 03:43:57;;;;;;;7.35;3.00;;;16.80;99.90;;;;;;2094683;28;20033;-70
2023/07/30 03:44:58;;;;;;;10.40;3.60;;;16.80;99.90;;;;;;2093180;28;20104;-70
2023/07/30 03:45:58;;;;;;;9.23;3.10;;;16.80;99.90;;;;;;2091774;28;20024;-70
2023/07/30 03:46:59;;;;;;;8.27;3.30;;;16.70;99.90;;;;;;2094175;28;20012;-70
2023/07/30 03:47:59;;;;;;;7.47;3.13;;;16.70;99.90;;;;;;2092193;28;20013;-70
2023/07/30 03:49:01;;;;;;;9.07;3.00;;;16.70;99.90;;;;;;2093652;28;20157;-70
2023/07/30 03:50:01;;;;;;;6.95;3.42;;;16.70;99.90;;;;;;2091005;28;20064;-70
2023/07/30 03:51:02;;;;;;;5.47;2.75;;;16.70;99.90;;;;;;2092393;28;20017;-70
2023/07/30 03:52:03;;;;;;;8.98;3.33;;;16.70;99.90;;;;;;2090462;28;20025;-70
2023/07/30 03:53:04;;;;;;;6.78;3.15;;;16.70;99.90;;;;;;2094539;28;20025;-70
2023/07/30 03:54:05;;;;;;;7.47;3.60;;;16.70;99.90;;;;;;2091101;28;20029;-70
2023/07/30 03:55:05;;;;;;;7.47;2.83;;;16.70;99.90;;;;;;2092756;28;20029;-70
2023/07/30 03:56:06;;;;;;;6.88;3.28;;;16.70;99.90;;;;;;2093247;28;20025;-70
2023/07/30 03:57:06;;;;;;;8.10;3.35;;;16.70;99.90;;;;;;2091589;28;20104;-70
2023/07/30 03:58:07;;;;;;;6.82;3.13;;;16.70;99.90;;;;;;2092168;28;20024;-70
2023/07/30 03:59:07;;;;;;;4.05;2.83;;;16.70;99.90;;;;;;2091058;28;20773;-70
2023/07/30 04:00:08;;;;;;;3.88;2.58;;;16.70;99.90;;;;;;2091163;28;20025;-71
2023/07/30 04:01:09;;;;;;;5.05;3.10;;;16.70;99.90;;;;;;2094382;28;20472;-70
2023/07/30 04:02:15;;;;;;;8.68;3.05;;;16.70;99.90;;;;;;2093290;28;20032;-70
2023/07/30 04:03:15;;;;;;;5.22;2.90;;;16.70;99.90;;;;;;2092727;28;20025;-70
2023/07/30 04:04:16;;;;;;;5.05;3.10;;;16.70;99.90;;;;;;2093248;28;20024;-70
2023/07/30 04:05:17;;;;;;;5.63;3.50;;;16.70;99.90;;;;;;2092595;28;20020;-70
2023/07/30 04:06:17;;;;;;;6.40;2.75;;;16.70;99.90;;;;;;2091060;28;20028;-70
2023/07/30 04:07:18;;;;;;;6.13;2.97;;;16.70;99.90;;;;;;2091080;28;20032;-70
2023/07/30 04:08:18;;;;;;;8.27;3.25;;;16.70;99.90;;;;;;2091473;28;20115;-70
2023/07/30 04:09:19;;;;;;;6.70;3.50;;;16.70;99.90;;;;;;2092805;28;20028;-70
2023/07/30 04:10:19;;;;;;;8.00;3.40;;;16.70;99.90;;;;;;2091136;28;20074;-70
2023/07/30 04:11:20;;;;;;;7.13;3.22;;;16.70;99.90;;;;;;2092202;28;20044;-70
2023/07/30 04:12:22;;;;;;;6.45;3.25;;;16.70;99.90;;;;;;2091524;28;20112;-70
2023/07/30 04:13:23;;;;;;;7.57;3.35;;;16.70;99.90;;;;;;2090006;28;20028;-70
2023/07/30 04:14:23;;;;;;;6.90;3.20;;;16.70;99.90;;;;;;2091351;28;20096;-70
2023/07/30 04:15:24;;;;;;;8.30;3.55;;;16.70;99.90;;;;;;2092640;28;20024;-70
2023/07/30 04:16:24;;;;;;;7.15;3.35;;;16.70;99.90;;;;;;2093200;28;20099;-70
2023/07/30 04:17:25;;;;;;;7.93;3.47;;;16.70;99.90;;;;;;2092003;28;20423;-71
2023/07/30 04:18:25;;;;;;;8.63;3.60;;;16.70;99.90;;;;;;2089855;28;20040;-70
2023/07/30 04:19:26;;;;;;;7.63;3.67;;;16.70;99.90;;;;;;2092717;28;20402;-70
2023/07/30 04:20:26;;;;;;;6.45;3.95;;;16.70;99.90;;;;;;2093193;28;20123;-70
2023/07/30 04:21:27;;;;;;;6.57;3.47;;;16.70;99.90;;;;;;2090875;28;20025;-70
2023/07/30 04:22:27;;;;;;;7.80;3.45;;;16.70;99.90;;;;;;2091782;28;20086;-70
2023/07/30 04:23:28;;;;;;;7.05;3.05;;;16.70;99.90;;;;;;2090328;28;20173;-70
2023/07/30 04:24:29;;;;;;;5.18;3.38;;;16.70;99.90;;;;;;2092194;28;20098;-70
2023/07/30 04:25:30;;;;;;;9.20;3.58;;;16.70;99.90;;;;;;2093114;28;20559;-70
2023/07/30 04:26:31;;;;;;;6.93;3.30;;;16.70;99.90;;;;;;2091112;28;20099;-70
2023/07/30 04:27:31;;;;;;;6.57;3.20;;;16.70;99.90;;;;;;2092532;28;20117;-70
2023/07/30 04:28:32;;;;;;;5.75;3.10;;;16.70;99.90;;;;;;2092695;28;20028;-70
2023/07/30 04:29:32;;;;;;;6.90;3.40;;;16.70;99.90;;;;;;2092456;28;20439;-70
2023/07/30 04:30:33;;;;;;;10.55;3.28;;;16.70;99.90;;;;;;2091888;28;20115;-70
2023/07/30 04:31:33;;;;;;;7.18;3.30;;;16.70;99.90;;;;;;2094395;28;20511;-71
2023/07/30 04:32:34;;;;;;;10.57;3.17;;;16.70;99.90;;;;;;2095544;28;20107;-70
2023/07/30 04:33:34;;;;;;;11.40;3.88;;;16.70;99.90;;;;;;2091582;28;20047;-70
2023/07/30 04:34:35;;;;;;;5.57;2.97;;;16.70;99.90;;;;;;2091772;28;20020;-70
2023/07/30 04:35:35;;;;;;;7.15;3.22;;;16.70;99.90;;;;;;2092909;28;20103;-70
2023/07/30 04:36:36;;;;;;;8.10;3.50;;;16.70;99.90;;;;;;2090935;28;20472;-71
2023/07/30 04:37:42;;;;;;;10.05;3.55;;;16.70;99.90;;;;;;2090778;28;20027;-71
2023/07/30 04:38:43;;;;;;;7.10;3.10;;;16.70;99.90;;;;;;2091569;28;20052;-71
2023/07/30 04:39:43;;;;;;;7.13;3.40;;;16.70;99.90;;;;;;2091242;28;20028;-71
2023/07/30 04:40:44;;;;;;;9.23;3.15;;;16.70;99.90;;;;;;2089917;28;20021;-71
2023/07/30 04:41:44;;;;;;;12.02;3.38;;;16.70;99.90;;;;;;2092301;28;20085;-70
2023/07/30 04:42:46;;;;;;;10.10;3.40;;;16.70;99.90;;;;;;2091336;28;20428;-70
2023/07/30 04:43:46;;;;;;;7.53;3.50;;;16.70;99.90;;;;;;2091396;28;20202;-70
2023/07/30 04:44:47;;;;;;;6.03;3.17;;;16.70;99.90;;;;;;2092003;28;20086;-70
2023/07/30 04:45:47;;;;;;;8.18;3.17;;;16.80;99.90;;;;;;2092390;28;20412;-70
2023/07/30 04:46:48;;;;;;;8.18;3.50;;;16.80;99.90;;;;;;2091904;28;20024;-70
2023/07/30 04:47:48;;;;;;;9.15;3.88;;;16.80;99.90;;;;;;2092300;28;20050;-70
2023/07/30 04:48:49;;;;;;;6.18;2.85;;;16.80;99.90;;;;;;2091133;28;20032;-70
2023/07/30 04:49:49;;;;;;;11.20;3.60;;;16.80;99.90;;;;;;2091372;28;20029;-70
2023/07/30 04:50:50;;;;;;;9.30;3.30;;;16.90;99.90;;;;;;2090843;28;20055;-70
2023/07/30 04:51:50;;;;;;;8.80;3.40;;;16.90;99.90;;;;;;2091138;28;20450;-70
2023/07/30 04:52:51;;;;;;;9.43;3.67;;;16.90;99.90;;;;;;2091673;28;20025;-71
2023/07/30 04:53:52;;;;;;;8.00;3.40;;;16.90;99.90;;;;;;2092017;28;20040;-71
2023/07/30 04:54:52;;;;;;;8.57;3.60;;;16.90;99.90;;;;;;2091387;28;20028;-70
2023/07/30 04:55:57;;;;;;;8.02;3.60;;;16.90;99.90;;;;;;2092629;28;20033;-70
2023/07/30 04:56:57;;;;;;;9.07;3.30;;;16.90;99.90;;;;;;2091203;28;20025;-70
2023/07/30 04:57:58;;;;;;;7.40;2.90;;;16.90;99.90;;;;;;2091834;28;20030;-70
2023/07/30 04:58:58;;;;;;;5.60;2.90;;;17.00;99.90;;;;;;2091410;28;20534;-71
2023/07/30 04:59:59;;;;;;;7.20;3.35;;;17.00;99.90;;;;;;2090668;28;20110;-71
2023/07/30 05:00:59;;;;;;;10.30;3.22;;;17.00;99.90;;;;;;2091463;28;20403;-70
2023/07/30 05:02:01;;;;;;;9.70;4.15;;;17.00;99.90;;;;;;2094721;28;20143;-71
2023/07/30 05:03:01;;;;;;;8.40;3.42;;;17.00;99.90;;;;;;2093731;28;20438;-71
2023/07/30 05:04:02;;;;;;;8.70;3.40;;;17.10;99.90;;;;;;2092922;28;20126;-71
2023/07/30 05:05:02;;;;;;;7.03;3.25;;;17.10;99.90;;;;;;2092350;28;20025;-71
2023/07/30 05:06:03;;;;;;;6.93;3.10;;;17.10;99.90;;;;;;2093318;28;20484;-71
2023/07/30 05:07:04;;;;;;;9.77;3.10;;;17.10;99.90;;;;;;2092731;28;20756;-71
2023/07/30 05:08:04;;;;;;;7.63;3.40;;;17.10;99.90;;;;;;2092624;28;20032;-71
2023/07/30 05:09:05;;;;;;;6.53;3.53;;;17.20;99.90;;;;;;2091929;28;21222;-71
2023/07/30 05:10:08;;;;;;;7.60;3.25;;;17.20;99.90;;;;;;2092900;28;20072;-71
2023/07/30 05:11:09;;;;;;;7.65;3.45;;;17.20;99.90;;;;;;2090688;28;20060;-71
2023/07/30 05:12:09;;;;;;;8.38;3.83;;;17.20;99.90;;;;;;2092773;28;20025;-71
2023/07/30 05:13:12;;;;;;;7.25;3.30;;;17.20;99.90;;;;;;2092388;28;20021;-71
2023/07/30 05:14:13;;;;;;;8.88;3.22;;;17.30;99.90;;;;;;2091055;28;20161;-71
2023/07/30 05:15:13;;;;;;;9.95;3.58;;;17.30;99.90;;;;;;2091796;28;20017;-71
2023/07/30 05:16:14;;;;;;;10.98;3.83;;;17.30;99.90;;;;;;2092446;28;20045;-71